Historyczne dane pomiarowe

Dodano dane terminowe – wersja testowa.

Dane z okresu 1951-2019

Wersja bazy: 1.34 [2019-03-16, lista zmian], aktualizacja planowana na 2019-04-15

Dane meteo z obszaru Polski uzyskane na podstawie danych udostępnionych przez Instytut Meteorologii i Gospodarki Wodnej – Państwowy Instytut Badawczy.

 

Wybierz Datę:    

       

TemperaturaWilgotnośćZachmurzenieWiatrCiśnienieWidzialnośćZjawiska
 Data    tng td wb rh cc ccl cl cm ch dir g1 g2 mslp ppp      
1999-07-03 00:00:00 17.2--- 13.2 14.877wxwxwx1wx--1015.7 993.0 0.0---wx
1999-07-03 01:00:00 16.5--- 13.7 14.883wxwxwx1wx--1016.0 993.2----wx
1999-07-03 02:00:00 17.2--- 13.6 15.079wxwxwx2wx--1015.8 993.1----wx
1999-07-03 03:00:00 17.4--- 13.8 15.279wxwxwxwx2wx--1015.9 993.2----wx
1999-07-03 04:00:00 16.2--- 13.2 14.482wxwxwxwx1wx--1016.1 993.3----wx
1999-07-03 05:00:00 17.3--- 14.0 15.381wxwxwxwx2wx--1016.1 993.4----wx
1999-07-03 06:00:00 18.1--- 15.0 16.282wxwx2wx--1016.1 993.4 0.0---wx
1999-07-03 07:00:00 20.1--- 14.1 16.468wxwxwx1wx--1015.9 993.4----wx
1999-07-03 08:00:00 21.3--- 13.7 16.662wxwxwx2wx--1015.8 993.4----wx
1999-07-03 09:00:00 22.4--- 14.2 17.360wxwxwx2wx--1015.6 993.3----wx
1999-07-03 10:00:00 23.1--- 13.9 17.456wxwxwx1wx--1015.6 993.3----wx
1999-07-03 11:00:00 23.7--- 14.1 17.755wxwxwx1wx--1015.1 992.9----wx
1999-07-03 12:00:00 25.1--- 13.9 18.150wxwxwx2wx--1014.2 992.1 0.0---wx
1999-07-03 13:00:00 25.3--- 14.2 18.350wxwxwx2wx--1013.7 991.6----wx
1999-07-03 14:00:00 26.5--- 14.2 18.747wxwxwx3wx--1013.4 991.4----wx
1999-07-03 15:00:00 26.6--- 13.7 18.545wxwxwxwx3wx--1012.9 990.9----wx
1999-07-03 16:00:00 27.1--- 13.4 18.543wxwxwxwx4wx--1012.2 990.3----wx
1999-07-03 17:00:00 26.8--- 14.2 18.846wxwxwx3wx--1011.8 989.9----wx
1999-07-03 18:00:00 26.2--- 14.2 18.648wxwxwx2wx--1011.7 989.7 0.0---wx
1999-07-03 19:00:00 24.0--- 15.6 18.659wxwxwx3wx--1011.4 989.3----wx
1999-07-03 20:00:00 22.4--- 16.2 18.468wxwxwx3wx--1011.5 989.3----wx
1999-07-03 21:00:00 21.2--- 15.9 17.872wxwxwx3wx--1011.7 989.4----wx
1999-07-03 22:00:00 20.1--- 15.5 17.275wxwxwx3wx--1011.6 989.2----wx
1999-07-03 23:00:00 19.2--- 15.7 17.080wxwxwx3wx--1011.6 989.1----wx

 

Źródłem pochodzenia danych jest Instytut Meteorologii i Gospodarki Wodnej – Państwowy Instytut Badawczy. Dane Instytutu Meteorologii i Gospodarki Wodnej – Państwowego Instytutu Badawczego zostały przetworzone.

Dane źródłowe można odnaleźć na stronie https://dane.imgw.pl